< < Back
Terminal Aerodrome Forecast


Current Version              Previous Versions:   1  2  3  4  5  6  7  8  9  

Terminal Aerodrome Forecast

537
FTUS44 KMOB 232300
TAFMOB
TAF
KMOB 232320Z 2400/2424 01004KT P6SM BKN150
     FM241700 35007KT P6SM SKC=

Latest METAR

815
SAUS80 KWBC 242300
MTRMOB
METAR KMOB 242256Z 33003KT 10SM CLR 21/08 A3003 RMK AO2 SLP169
T02110078


USA.gov is the U.S. government's official web portal to all federal, state and local government web resources and services.